Αρχική σελίδα
METAR-TAF:

METAR-TAF

Αεροδρόμια :

Λουσάκα, Ζάμπια

γεωγραφικό πλάτος: 15-19-51S, γεωγραφικό μήκος: 028-27-09E, υψόμετρο: 1152 μ

Παρών καιρός

Η αναφορά έγινε 1 ώρα και 2 λεπτά πριν, στις 23:00 UTC
Άνεμος 2 kt από μεταβλητές κατευθύνσεις
Θερμοκρασία 18°C
Υγρασία 94%
Πίεση 1019 hPa
Ορατότητα 10 χλμ και άνω
Δεν υπάρχουν νέφη με βάση κάτω από τα 1500 μ. και δεν υπάρχουν νέφη σωρειτομελανίτες.

METAR: FLKK 212300Z VRB02KT CAVOK 18/17 Q1019

Χρόνος: 02:02 (00:02 UTC)


TAF: λείπει

Μετεωρολογικές αναφορές και προγνώσεις για περισσότερα από 4000 αεροδρόμια (δελτία METAR και TAF).

Οι διαθέσιμοι σταθμοί απεικονίζονται στο χάρτη με κίτρινες και κόκκινες κουκκίδες.

Μετακινήστε το ποντίκι πάνω από τις κουκκίδες για να δείτε το όνομα του σταθμού.

Στη συνέχεια, κάντε κλικ για να δείτε τις μετεωρολογικές αναφορές και τις προγνώσεις καιρού.

Για να αλλάξετε το χάρτη: κάντε κλικ στα πράσινα κουμπιά με τον μαύρο σταυρό για να ζουμάρετε, στο πράσινο κουμπί με την παύλα για να αφαιρέσετε το ζουμ ή στα πράσινα βέλη για να αντιπαραβάλλετε χάρτες.


METAR-TAF: